createdAt,value
2017-01-19T00:00:44.396Z,79.29
2017-01-19T00:01:44.378Z,79
2017-01-19T00:02:44.367Z,79.29
2017-01-19T00:03:44.345Z,78.81
2017-01-19T00:04:44.329Z,79.29
2017-01-19T00:05:44.314Z,79.19
2017-01-19T00:06:44.299Z,79.29
2017-01-19T00:07:44.282Z,79.19
2017-01-19T00:08:44.262Z,79.48
2017-01-19T00:09:44.246Z,79.1
2017-01-19T00:10:44.230Z,79.57
2017-01-19T00:11:44.215Z,79.48
2017-01-19T00:12:44.195Z,79.57
2017-01-19T00:13:44.180Z,79.48
2017-01-19T00:14:44.165Z,79.48
2017-01-19T00:15:44.180Z,79.19
2017-01-19T00:16:44.130Z,79
2017-01-19T00:17:44.115Z,79
2017-01-19T00:18:44.098Z,79
2017-01-19T00:19:44.083Z,79.1
2017-01-19T00:20:44.065Z,79.1
2017-01-19T00:21:44.442Z,79
2017-01-19T00:22:44.034Z,79.1
2017-01-19T00:23:44.015Z,78.91
2017-01-19T00:24:44.000Z,79
2017-01-19T00:25:43.983Z,79.1
2017-01-19T00:26:43.966Z,79.67
2017-01-19T00:27:44.336Z,79.57
2017-01-19T00:28:43.934Z,79.76
2017-01-19T00:29:43.918Z,80.24
2017-01-19T00:30:43.902Z,79.95
2017-01-19T00:31:43.885Z,80.14
2017-01-19T00:32:43.868Z,80.33
2017-01-19T00:33:43.851Z,80.24
2017-01-19T00:34:43.836Z,80.62
2017-01-19T00:35:43.818Z,80.52
2017-01-19T00:36:43.801Z,80.71
2017-01-19T00:37:43.787Z,80.43
2017-01-19T00:38:43.768Z,80.05
2017-01-19T00:39:43.758Z,80.24
2017-01-19T00:40:43.737Z,80.33
2017-01-19T00:41:43.718Z,80.33
2017-01-19T00:42:43.703Z,80.43
2017-01-19T00:43:44.075Z,80.14
2017-01-19T00:44:43.669Z,80.14
2017-01-19T00:45:43.653Z,80.33
2017-01-19T00:46:43.638Z,79.95
2017-01-19T00:47:43.621Z,80.43
2017-01-19T00:48:43.604Z,80.62
2017-01-19T00:49:43.586Z,80.14
2017-01-19T00:50:43.571Z,79.95
2017-01-19T00:51:43.554Z,80.14
2017-01-19T00:52:43.539Z,80.14
2017-01-19T00:53:43.521Z,80.05
2017-01-19T00:54:43.509Z,80.14
2017-01-19T00:55:43.488Z,80.24
2017-01-19T00:56:43.472Z,80.33
2017-01-19T00:57:43.457Z,80.05
2017-01-19T00:58:43.441Z,80.14
2017-01-19T00:59:43.423Z,80.43
2017-01-19T01:00:43.407Z,79.95
2017-01-19T01:01:43.391Z,79.76
2017-01-19T01:02:43.373Z,79.86
2017-01-19T01:03:43.357Z,79.95
2017-01-19T01:04:43.342Z,80.05
2017-01-19T01:05:43.328Z,79.86
2017-01-19T01:06:43.320Z,79.95
2017-01-19T01:07:43.292Z,80.05
2017-01-19T01:08:43.277Z,80.05
2017-01-19T01:09:43.259Z,80.05
2017-01-19T01:10:43.242Z,79.86
2017-01-19T01:11:43.227Z,79.86
2017-01-19T01:12:43.211Z,79.67
2017-01-19T01:13:43.193Z,79.86
2017-01-19T01:14:43.179Z,80.24
2017-01-19T01:15:43.161Z,80.05
2017-01-19T01:16:43.146Z,80.05
2017-01-19T01:17:43.127Z,79.76
2017-01-19T01:18:43.113Z,79.48
2017-01-19T01:19:43.098Z,80.33
2017-01-19T01:20:43.080Z,79.67
2017-01-19T01:21:43.065Z,79.67
2017-01-19T01:22:43.048Z,79.57
2017-01-19T01:23:43.030Z,79.67
2017-01-19T01:24:43.015Z,79.38
2017-01-19T01:25:43.026Z,79.48
2017-01-19T01:26:42.981Z,79.86
2017-01-19T01:27:42.969Z,80.14
2017-01-19T01:28:42.950Z,80.33
2017-01-19T01:29:42.933Z,79.67
2017-01-19T01:30:42.921Z,79.38
2017-01-19T01:31:42.901Z,79.29
2017-01-19T01:32:42.884Z,79.48
2017-01-19T01:33:42.870Z,79.67
2017-01-19T01:34:42.854Z,79.05
2017-01-19T01:35:42.838Z,79.29
2017-01-19T01:36:42.821Z,79.86
2017-01-19T01:37:42.804Z,78.91
2017-01-19T01:38:42.787Z,79.67
2017-01-19T01:39:42.771Z,79.1
2017-01-19T01:40:42.754Z,79
2017-01-19T01:41:42.739Z,79
2017-01-19T01:42:42.724Z,79
2017-01-19T01:43:42.708Z,79.19
2017-01-19T01:44:42.692Z,79.33
2017-01-19T01:45:42.676Z,78.72
2017-01-19T01:46:42.660Z,79.19
2017-01-19T01:47:42.644Z,79.1
2017-01-19T01:48:42.630Z,78.72
2017-01-19T01:49:42.612Z,78.72
2017-01-19T01:50:42.597Z,78.72
2017-01-19T01:51:42.582Z,78.63
2017-01-19T01:52:42.567Z,79.19
2017-01-19T01:53:42.552Z,78.44
2017-01-19T01:54:42.533Z,78.72
2017-01-19T01:55:42.519Z,78.53
2017-01-19T01:56:42.502Z,78.63
2017-01-19T01:57:42.487Z,78.91
2017-01-19T01:58:42.473Z,79.19
2017-01-19T01:59:42.455Z,79.1
2017-01-19T02:00:42.442Z,79.38
2017-01-19T02:01:42.423Z,79.38
2017-01-19T02:02:42.407Z,79.1
2017-01-19T02:03:42.421Z,78.76
2017-01-19T02:04:42.376Z,78.72
2017-01-19T02:05:42.750Z,79.48
2017-01-19T02:06:42.345Z,79.05
2017-01-19T02:07:42.329Z,79.29
2017-01-19T02:08:42.312Z,78.63
2017-01-19T02:09:42.297Z,78.63
2017-01-19T02:10:42.283Z,79.19
2017-01-19T02:11:42.266Z,79.19
2017-01-19T02:12:42.250Z,78.53
2017-01-19T02:13:42.237Z,78.53
2017-01-19T02:14:42.219Z,78.39
2017-01-19T02:15:42.203Z,78.91
2017-01-19T02:16:42.185Z,78.72
2017-01-19T02:17:42.173Z,78.72
2017-01-19T02:18:42.158Z,79.19
2017-01-19T02:19:42.139Z,78.72
2017-01-19T02:20:42.126Z,78.76
2017-01-19T02:21:42.110Z,78.1
2017-01-19T02:22:42.095Z,78.29
2017-01-19T02:23:42.076Z,78.01
2017-01-19T02:24:42.064Z,78.48
2017-01-19T02:25:42.045Z,78.39
2017-01-19T02:26:42.028Z,78.34
2017-01-19T02:27:42.016Z,78.34
2017-01-19T02:28:41.999Z,78.34
2017-01-19T02:29:41.981Z,78.16
2017-01-19T02:30:41.967Z,78.29
2017-01-19T02:31:41.951Z,77.97
2017-01-19T02:32:41.954Z,77.87
2017-01-19T02:33:41.921Z,77.5
2017-01-19T02:34:41.903Z,77.69
2017-01-19T02:35:41.889Z,78.25
2017-01-19T02:36:41.873Z,78.06
2017-01-19T02:37:41.856Z,78.53
2017-01-19T02:38:41.841Z,78.81
2017-01-19T02:39:41.825Z,79.29
2017-01-19T02:40:41.838Z,78.91
2017-01-19T02:41:41.800Z,79.19
2017-01-19T02:42:41.778Z,79.1
2017-01-19T02:43:41.764Z,79.29
2017-01-19T02:44:41.747Z,78.91
2017-01-19T02:45:41.729Z,79.19
2017-01-19T02:46:41.715Z,79.1
2017-01-19T02:47:41.703Z,79.29
2017-01-19T02:48:41.687Z,79.1
2017-01-19T02:49:41.665Z,79.1
2017-01-19T02:50:41.654Z,79.38
2017-01-19T02:51:41.636Z,79.29
2017-01-19T02:52:41.619Z,79
2017-01-19T02:53:41.603Z,79.1
2017-01-19T02:54:41.589Z,79.29
2017-01-19T02:55:41.569Z,79
2017-01-19T02:56:41.553Z,79
2017-01-19T02:57:41.540Z,78.81
2017-01-19T02:58:41.522Z,79.19
2017-01-19T02:59:41.509Z,78.81
2017-01-19T03:00:41.489Z,79.1
2017-01-19T03:01:41.474Z,79
2017-01-19T03:02:41.460Z,79
2017-01-19T03:03:41.442Z,79
2017-01-19T03:04:41.426Z,79.48
2017-01-19T03:05:41.410Z,78.81
2017-01-19T03:06:41.395Z,79.29
2017-01-19T03:07:41.379Z,79.38
2017-01-19T03:08:41.366Z,79.1
2017-01-19T03:09:41.346Z,79
2017-01-19T03:10:41.341Z,79.1
2017-01-19T03:11:41.313Z,79
2017-01-19T03:12:41.299Z,79.67
2017-01-19T03:13:41.281Z,79.67
2017-01-19T03:14:41.265Z,79.67
2017-01-19T03:15:41.251Z,79.95
2017-01-19T03:16:41.234Z,79.86
2017-01-19T03:17:41.218Z,79.95
2017-01-19T03:18:41.200Z,80.43
2017-01-19T03:19:41.184Z,80.05
2017-01-19T03:20:41.170Z,80.33
2017-01-19T03:21:41.155Z,79.95
2017-01-19T03:22:41.140Z,80.14
2017-01-19T03:23:41.136Z,79.67
2017-01-19T03:24:41.106Z,79.76
2017-01-19T03:25:41.090Z,79.38
2017-01-19T03:26:41.073Z,79.57
2017-01-19T03:27:41.058Z,79.38
2017-01-19T03:28:41.042Z,79.67
2017-01-19T03:29:41.024Z,79.76
2017-01-19T03:30:41.007Z,79.57
2017-01-19T03:31:40.991Z,79.48
2017-01-19T03:32:40.974Z,80.05
2017-01-19T03:33:40.958Z,79.95
2017-01-19T03:34:40.942Z,79.86
2017-01-19T03:35:40.926Z,79.76
2017-01-19T03:36:40.916Z,79.86
2017-01-19T03:37:40.897Z,80.62
2017-01-19T03:38:40.877Z,80.24
2017-01-19T03:39:40.861Z,80.14
2017-01-19T03:40:40.845Z,80.24
2017-01-19T03:41:40.831Z,80.43
2017-01-19T03:42:40.813Z,80.43
2017-01-19T03:43:40.796Z,80.24
2017-01-19T03:44:40.781Z,79.86
2017-01-19T03:45:40.764Z,80.05
2017-01-19T03:46:40.751Z,80.05
2017-01-19T03:47:40.732Z,80.24
2017-01-19T03:48:40.744Z,79.29
2017-01-19T03:49:40.700Z,79.95
2017-01-19T03:50:40.682Z,79.48
2017-01-19T03:51:40.696Z,79.1
2017-01-19T03:52:40.649Z,79.1
2017-01-19T03:53:40.635Z,79.19
2017-01-19T03:54:40.619Z,78.81
2017-01-19T03:55:40.604Z,78.72
2017-01-19T03:56:40.586Z,78.81
2017-01-19T03:57:40.571Z,79.19
2017-01-19T03:58:40.554Z,79.19
2017-01-19T03:59:40.537Z,79.38
2017-01-19T04:00:40.525Z,79
2017-01-19T04:01:40.505Z,78.91
2017-01-19T04:02:40.488Z,78.91
2017-01-19T04:03:40.476Z,79
2017-01-19T04:04:40.458Z,78.81
2017-01-19T04:05:40.441Z,79.19
2017-01-19T04:06:40.425Z,78.81
2017-01-19T04:07:40.410Z,79.29
2017-01-19T04:08:40.396Z,78.44
2017-01-19T04:09:40.378Z,78.63
2017-01-19T04:10:40.363Z,78.63
2017-01-19T04:11:40.347Z,78.16
2017-01-19T04:12:40.331Z,78.16
2017-01-19T04:13:40.318Z,78.25
2017-01-19T04:14:40.298Z,78.34
2017-01-19T04:15:40.283Z,78.25
2017-01-19T04:16:40.265Z,78.16
2017-01-19T04:17:40.250Z,78.34
2017-01-19T04:18:40.233Z,78.34
2017-01-19T04:19:40.217Z,78.44
2017-01-19T04:20:40.204Z,78.44
2017-01-19T04:21:40.184Z,77.78
2017-01-19T04:22:40.175Z,78.16
2017-01-19T04:23:40.152Z,78.29
2017-01-19T04:24:40.138Z,78.2
2017-01-19T04:25:40.121Z,78.34
2017-01-19T04:26:40.105Z,77.72
2017-01-19T04:27:40.089Z,77.31
2017-01-19T04:28:40.077Z,77.5
2017-01-19T04:29:40.058Z,78.25
2017-01-19T04:30:40.043Z,78.25
2017-01-19T04:31:40.026Z,78.25
2017-01-19T04:32:40.011Z,78.34
2017-01-19T04:33:39.993Z,78.06
2017-01-19T04:34:39.976Z,78.63
2017-01-19T04:35:39.962Z,78.53
2017-01-19T04:36:39.944Z,79
2017-01-19T04:37:39.930Z,78.81
2017-01-19T04:38:39.913Z,79.29
2017-01-19T04:39:39.898Z,79
2017-01-19T04:40:39.880Z,79.38
2017-01-19T04:41:39.865Z,79.29
2017-01-19T04:42:39.851Z,78.91
2017-01-19T04:43:39.832Z,79.76
2017-01-19T04:44:39.818Z,79.67
2017-01-19T04:45:39.799Z,79.38
2017-01-19T04:46:39.786Z,80.05
2017-01-19T04:47:39.766Z,79.95
2017-01-19T04:48:39.751Z,80.05
2017-01-19T04:49:39.734Z,80.14
2017-01-19T04:50:39.718Z,79.29
2017-01-19T04:51:39.705Z,79.57
2017-01-19T04:52:39.686Z,79.38
2017-01-19T04:53:39.671Z,79.1
2017-01-19T04:54:39.654Z,79.67
2017-01-19T04:55:39.637Z,78.81
2017-01-19T04:56:39.622Z,79.29
2017-01-19T04:57:39.603Z,79.19
2017-01-19T04:58:39.587Z,79.1
2017-01-19T04:59:39.572Z,79
2017-01-19T05:00:39.555Z,79
2017-01-19T05:01:39.538Z,79.67
2017-01-19T05:02:39.519Z,79.76
2017-01-19T05:03:39.508Z,79.19
2017-01-19T05:04:39.488Z,79.48
2017-01-19T05:05:39.472Z,79.95
2017-01-19T05:06:39.455Z,79.76
2017-01-19T05:07:39.439Z,79.86
2017-01-19T05:08:39.421Z,80.62
2017-01-19T05:09:39.404Z,79.95
2017-01-19T05:10:39.387Z,80.24
2017-01-19T05:11:39.371Z,79.95
2017-01-19T05:12:39.355Z,79.95
2017-01-19T05:13:39.339Z,80.33
2017-01-19T05:14:39.322Z,80.52
2017-01-19T05:15:39.310Z,80.14
2017-01-19T05:16:39.290Z,80.33
2017-01-19T05:17:39.271Z,80.43
2017-01-19T05:18:39.254Z,80.33
2017-01-19T05:19:39.239Z,80.62
2017-01-19T05:20:39.221Z,80.33
2017-01-19T05:21:39.205Z,80.62
2017-01-19T05:22:39.189Z,80.52
2017-01-19T05:23:39.172Z,80.33
2017-01-19T05:24:39.162Z,79.95
2017-01-19T05:25:39.487Z,80.14
2017-01-19T05:26:39.121Z,79.29
2017-01-19T05:27:39.106Z,79.48
2017-01-19T05:28:39.089Z,79.67
2017-01-19T05:29:39.070Z,80.24
2017-01-19T05:30:39.056Z,79.57
2017-01-19T05:31:39.040Z,79.76
2017-01-19T05:32:39.023Z,80.14
2017-01-19T05:33:39.005Z,79.95
2017-01-19T05:34:38.989Z,79.57
2017-01-19T05:35:38.973Z,79.86
2017-01-19T05:36:38.958Z,79.86
2017-01-19T05:37:38.939Z,79.38
2017-01-19T05:38:38.924Z,79.86
2017-01-19T05:39:38.910Z,80.05
2017-01-19T05:40:38.890Z,79.86
2017-01-19T05:41:38.874Z,79.86
2017-01-19T05:42:38.858Z,79.95
2017-01-19T05:43:38.841Z,80.52
2017-01-19T05:44:38.825Z,80.05
2017-01-19T05:45:38.808Z,79.95
2017-01-19T05:46:38.793Z,79.95
2017-01-19T05:47:38.777Z,80.33
2017-01-19T05:48:38.758Z,80.14
2017-01-19T05:49:38.744Z,79.95
2017-01-19T05:50:39.114Z,80.05
2017-01-19T05:51:38.708Z,80.62
2017-01-19T05:52:38.695Z,80.52
2017-01-19T05:53:38.677Z,80.33
2017-01-19T05:54:38.661Z,80.43
2017-01-19T05:55:39.029Z,79.67
2017-01-19T05:56:38.629Z,80.05
2017-01-19T05:57:38.611Z,79.86
2017-01-19T05:58:38.594Z,79.76
2017-01-19T05:59:38.577Z,79.38
2017-01-19T06:00:38.570Z,79.48
2017-01-19T06:01:38.546Z,79.95
2017-01-19T06:02:38.528Z,79.67
2017-01-19T06:03:38.515Z,79.86
2017-01-19T06:04:38.497Z,79.57
2017-01-19T06:05:38.481Z,79.48
2017-01-19T06:06:38.463Z,79.19
2017-01-19T06:07:38.449Z,79.19
2017-01-19T06:08:38.457Z,79.1
2017-01-19T06:09:38.419Z,79.29
2017-01-19T06:10:38.398Z,79
2017-01-19T06:11:38.381Z,79
2017-01-19T06:12:38.368Z,78.81
2017-01-19T06:13:38.352Z,78.81
2017-01-19T06:14:38.332Z,78.91
2017-01-19T06:15:38.319Z,79.48
2017-01-19T06:16:38.301Z,79.1
2017-01-19T06:17:38.286Z,79.19
2017-01-19T06:18:38.267Z,79.29
2017-01-19T06:19:38.251Z,79.29
2017-01-19T06:20:38.241Z,78.91
2017-01-19T06:21:38.218Z,79.67
2017-01-19T06:22:38.591Z,80.05
2017-01-19T06:23:38.187Z,79.95
2017-01-19T06:24:38.172Z,80.05
2017-01-19T06:25:38.155Z,80.05
2017-01-19T06:26:38.137Z,80.05
2017-01-19T06:27:38.121Z,79.86
2017-01-19T06:28:38.105Z,79.57
2017-01-19T06:29:38.087Z,79.67
2017-01-19T06:30:38.073Z,79.76
2017-01-19T06:31:38.055Z,79.38
2017-01-19T06:32:38.040Z,79.1
2017-01-19T06:33:38.022Z,79
2017-01-19T06:34:38.394Z,78.81
2017-01-19T06:35:37.993Z,79.1
2017-01-19T06:36:37.974Z,79.19
2017-01-19T06:37:37.960Z,78.44
2017-01-19T06:38:37.969Z,78.63
2017-01-19T06:39:37.927Z,79.29
2017-01-19T06:40:37.909Z,78.72
2017-01-19T06:41:37.894Z,79
2017-01-19T06:42:37.876Z,78.81
2017-01-19T06:43:37.860Z,79.19
2017-01-19T06:44:37.844Z,78.91
2017-01-19T06:45:37.830Z,79.95
2017-01-19T06:46:37.811Z,79
2017-01-19T06:47:37.795Z,79.57
2017-01-19T06:48:37.784Z,79.57
2017-01-19T06:49:37.766Z,79.38
2017-01-19T06:50:37.746Z,79.19
2017-01-19T06:51:37.729Z,79.1
2017-01-19T06:52:37.713Z,78.81
2017-01-19T06:53:37.697Z,79.19
2017-01-19T06:54:37.685Z,78.63
2017-01-19T06:55:37.668Z,78.91
2017-01-19T06:56:37.651Z,78.81
2017-01-19T06:57:37.632Z,79
2017-01-19T06:58:37.615Z,78.91
2017-01-19T06:59:37.600Z,78.63
2017-01-19T07:00:37.972Z,78.44
2017-01-19T07:01:37.566Z,79
2017-01-19T07:02:37.550Z,79
2017-01-19T07:03:37.533Z,78.91
2017-01-19T07:04:37.518Z,78.91
2017-01-19T07:05:37.500Z,79
2017-01-19T07:06:37.486Z,79.38
2017-01-19T07:07:37.468Z,78.63
2017-01-19T07:08:37.451Z,78.53
2017-01-19T07:09:37.436Z,78.91
2017-01-19T07:10:37.419Z,78.81
2017-01-19T07:11:37.403Z,78.44
2017-01-19T07:12:37.387Z,78.44
2017-01-19T07:13:37.370Z,78.25
2017-01-19T07:14:37.378Z,77.97
2017-01-19T07:15:37.336Z,78.06
2017-01-19T07:16:37.322Z,78.34
2017-01-19T07:17:37.304Z,78.25
2017-01-19T07:18:37.291Z,78.25
2017-01-19T07:19:37.273Z,78.16
2017-01-19T07:20:37.258Z,78.06
2017-01-19T07:21:37.240Z,78.06
2017-01-19T07:22:37.222Z,78.16
2017-01-19T07:23:37.206Z,78.44
2017-01-19T07:24:37.580Z,77.59
2017-01-19T07:25:37.177Z,77.87
2017-01-19T07:26:37.159Z,77.69
2017-01-19T07:27:37.142Z,77.69
2017-01-19T07:28:37.515Z,77.78
2017-01-19T07:29:37.109Z,77.59
2017-01-19T07:30:37.093Z,77.63
2017-01-19T07:31:37.079Z,77.87
2017-01-19T07:32:37.064Z,77.78
2017-01-19T07:33:37.047Z,77.72
2017-01-19T07:34:37.031Z,78.1
2017-01-19T07:35:37.014Z,77.53
2017-01-19T07:36:36.996Z,78.01
2017-01-19T07:37:36.981Z,77.53
2017-01-19T07:38:36.967Z,77.63
2017-01-19T07:39:36.949Z,77.63
2017-01-19T07:40:36.933Z,76.59
2017-01-19T07:41:36.917Z,76.87
2017-01-19T07:42:36.904Z,76.97
2017-01-19T07:43:36.884Z,76.31
2017-01-19T07:44:37.258Z,76.59
2017-01-19T07:45:36.853Z,76.4
2017-01-19T07:46:36.835Z,76.87
2017-01-19T07:47:36.821Z,76.59
2017-01-19T07:48:36.804Z,76.68
2017-01-19T07:49:36.787Z,76.78
2017-01-19T07:50:36.772Z,76.87
2017-01-19T07:51:36.756Z,76.78
2017-01-19T07:52:36.739Z,76.21
2017-01-19T07:53:36.725Z,76.21
2017-01-19T07:54:36.707Z,76.31
2017-01-19T07:55:36.692Z,76.4
2017-01-19T07:56:36.677Z,75.74
2017-01-19T07:57:36.660Z,75.83
2017-01-19T07:58:36.645Z,75.83
2017-01-19T07:59:36.629Z,76.02
2017-01-19T08:00:36.622Z,75.26
2017-01-19T08:01:36.599Z,75.45
2017-01-19T08:02:36.585Z,76.31
2017-01-19T08:03:36.567Z,75.74
2017-01-19T08:04:36.552Z,74.88
2017-01-19T08:05:36.539Z,74.98
2017-01-19T08:06:36.520Z,74.88
2017-01-19T08:07:36.510Z,74.69
2017-01-19T08:08:36.487Z,74.79
2017-01-19T08:09:36.476Z,74.69
2017-01-19T08:10:36.458Z,75.87
2017-01-19T08:11:36.442Z,74.83
2017-01-19T08:12:36.427Z,74.6
2017-01-19T08:13:36.412Z,74.64
2017-01-19T08:14:36.397Z,74.55
2017-01-19T08:15:36.383Z,74.74
2017-01-19T08:16:36.367Z,74.55
2017-01-19T08:17:36.347Z,74.45
2017-01-19T08:18:36.338Z,74.07
2017-01-19T08:19:36.318Z,73.41
2017-01-19T08:20:36.304Z,72.75
2017-01-19T08:21:36.288Z,73.22
2017-01-19T08:22:36.276Z,73.6
2017-01-19T08:23:36.259Z,73.32
2017-01-19T08:24:36.243Z,73.5
2017-01-19T08:25:36.229Z,73.98
2017-01-19T08:26:36.214Z,74.17
2017-01-19T08:27:36.200Z,74.36
2017-01-19T08:28:36.185Z,73.22
2017-01-19T08:29:36.172Z,74.07
2017-01-19T08:30:36.156Z,73.6
2017-01-19T08:31:36.138Z,73.41
2017-01-19T08:32:36.124Z,73.6
2017-01-19T08:33:36.109Z,73.41
2017-01-19T08:34:36.095Z,73.5
2017-01-19T08:35:36.078Z,73.6
2017-01-19T08:36:36.064Z,73.69
2017-01-19T08:37:36.049Z,73.41
2017-01-19T08:38:36.037Z,73.6
2017-01-19T08:39:36.018Z,73.22
2017-01-19T08:40:36.004Z,73.03
2017-01-19T08:41:35.990Z,72.85
2017-01-19T08:42:35.976Z,72.56
2017-01-19T08:43:35.960Z,72.28
2017-01-19T08:44:35.945Z,71.99
2017-01-19T08:45:35.932Z,71.33
2017-01-19T08:46:35.915Z,71.04
2017-01-19T08:47:35.900Z,71.52
2017-01-19T08:48:35.888Z,71.71
2017-01-19T08:49:35.874Z,71.9
2017-01-19T08:50:35.857Z,72.18
2017-01-19T08:51:35.846Z,72.18
2017-01-19T08:52:35.828Z,72.09
2017-01-19T08:53:35.815Z,71.23
2017-01-19T08:54:35.802Z,71.9
2017-01-19T08:55:35.786Z,71.42
2017-01-19T08:56:35.772Z,71.23
2017-01-19T08:57:35.755Z,71.17
2017-01-19T08:58:35.742Z,71.17
2017-01-19T08:59:35.728Z,70.7
2017-01-19T09:00:35.718Z,70.89
2017-01-19T09:01:35.698Z,70.61
2017-01-19T09:02:35.685Z,70.79
2017-01-19T09:03:35.671Z,70.23
2017-01-19T09:04:35.658Z,70.23
2017-01-19T09:05:35.642Z,69.76
2017-01-19T09:06:35.627Z,69.28
2017-01-19T09:07:35.614Z,69.19
2017-01-19T09:08:35.604Z,68.62
2017-01-19T09:09:35.590Z,68.9
2017-01-19T09:10:35.572Z,68.71
2017-01-19T09:11:35.560Z,69.09
2017-01-19T09:12:35.546Z,69
2017-01-19T09:13:35.532Z,68.33
2017-01-19T09:14:35.542Z,68.05
2017-01-19T09:15:35.502Z,68.43
2017-01-19T09:16:35.489Z,68.15
2017-01-19T09:17:35.476Z,67.96
2017-01-19T09:18:35.463Z,67.86
2017-01-19T09:19:35.448Z,68.52
2017-01-19T09:20:35.433Z,68.24
2017-01-19T09:21:35.421Z,68.52
2017-01-19T09:22:35.405Z,67.96
2017-01-19T09:23:35.390Z,67.86
2017-01-19T09:24:35.378Z,68.24
2017-01-19T09:25:35.363Z,67.68
2017-01-19T09:26:35.353Z,67.86
2017-01-19T09:27:35.336Z,67.86
2017-01-19T09:28:35.328Z,67.86
2017-01-19T09:29:35.309Z,67.33
2017-01-19T09:30:35.295Z,67.71
2017-01-19T09:31:35.282Z,67.52
2017-01-19T09:32:35.269Z,67.14
2017-01-19T09:33:35.280Z,67.33
2017-01-19T09:34:35.240Z,66.76
2017-01-19T09:35:35.227Z,66.76
2017-01-19T09:36:35.215Z,67.52
2017-01-19T09:37:35.199Z,66.57
2017-01-19T09:38:35.185Z,66.76
2017-01-19T09:39:35.174Z,66.47
2017-01-19T09:40:35.160Z,66.09
2017-01-19T09:41:35.147Z,65.72
2017-01-19T09:42:35.133Z,65.75
2017-01-19T09:43:35.122Z,66.13
2017-01-19T09:44:35.108Z,65.84
2017-01-19T09:45:35.094Z,65.37
2017-01-19T09:46:35.084Z,65.28
2017-01-19T09:47:35.071Z,65.09
2017-01-19T09:48:35.058Z,64.33
2017-01-19T09:49:35.045Z,64.61
2017-01-19T09:50:35.030Z,64.52
2017-01-19T09:51:35.019Z,64.42
2017-01-19T09:52:35.007Z,63.67
2017-01-19T09:53:34.995Z,63.85
2017-01-19T09:54:34.980Z,63.85
2017-01-19T09:55:34.967Z,63.67
2017-01-19T09:56:34.954Z,63.29
2017-01-19T09:57:34.943Z,63.48
2017-01-19T09:58:34.929Z,63.1
2017-01-19T09:59:34.918Z,63.2
2017-01-19T10:00:34.905Z,63.01
2017-01-19T10:01:34.893Z,63.1
2017-01-19T10:02:34.881Z,62.56
2017-01-19T10:03:34.868Z,62.24
2017-01-19T10:04:34.856Z,62.62
2017-01-19T10:05:34.843Z,62.82
2017-01-19T10:06:34.829Z,62.91
2017-01-19T10:07:34.819Z,63.29
2017-01-19T10:08:34.805Z,62.82
2017-01-19T10:09:34.792Z,62.43
2017-01-19T10:10:34.781Z,61.68
2017-01-19T10:11:35.155Z,61.87
2017-01-19T10:12:34.756Z,62.15
2017-01-19T10:13:34.745Z,62.05
2017-01-19T10:14:34.735Z,62.62
2017-01-19T10:15:34.723Z,62.91
2017-01-19T10:16:34.708Z,62.72
2017-01-19T10:17:34.698Z,63.29
2017-01-19T10:18:34.682Z,62.91
2017-01-19T10:19:34.675Z,62.91
2017-01-19T10:20:34.657Z,63.01
2017-01-19T10:21:34.645Z,63.2
2017-01-19T10:22:34.633Z,62.91
2017-01-19T10:23:34.623Z,62.47
2017-01-19T10:24:34.615Z,62.05
2017-01-19T10:25:34.595Z,61.96
2017-01-19T10:26:34.587Z,62.34
2017-01-19T10:27:34.570Z,62.24
2017-01-19T10:28:34.560Z,62.43
2017-01-19T10:29:34.550Z,61.61
2017-01-19T10:30:34.535Z,61.05
2017-01-19T10:31:34.523Z,61.05
2017-01-19T10:32:34.511Z,61.61
2017-01-19T10:33:34.498Z,62.05
2017-01-19T10:34:34.487Z,61.43
2017-01-19T10:35:34.474Z,61.43
2017-01-19T10:36:34.461Z,61.52
2017-01-19T10:37:34.837Z,61.52
2017-01-19T10:38:34.440Z,61.24
2017-01-19T10:39:34.427Z,61.24
2017-01-19T10:40:34.416Z,61.24
2017-01-19T10:41:34.402Z,60.95
2017-01-19T10:42:34.389Z,60.47
2017-01-19T10:43:34.378Z,60.19
2017-01-19T10:44:34.366Z,60.67
2017-01-19T10:45:34.354Z,60.47
2017-01-19T10:46:34.342Z,60.38
2017-01-19T10:47:34.331Z,60.67
2017-01-19T10:48:34.318Z,59.53
2017-01-19T10:49:34.308Z,59.15
2017-01-19T10:50:34.295Z,59.27
2017-01-19T10:51:34.284Z,59.34
2017-01-19T10:52:34.271Z,59.25
2017-01-19T10:53:34.260Z,59.56
2017-01-19T10:54:34.248Z,59.46
2017-01-19T10:55:34.237Z,58.8
2017-01-19T10:56:34.226Z,59.08
2017-01-19T10:57:34.214Z,58.8
2017-01-19T10:58:34.201Z,58.51
2017-01-19T10:59:34.192Z,58.8
2017-01-19T11:00:34.179Z,58.8
2017-01-19T11:01:34.171Z,59.08
2017-01-19T11:02:34.157Z,58.51
2017-01-19T11:03:34.148Z,58.7
2017-01-19T11:04:34.134Z,58.51
2017-01-19T11:05:34.515Z,58.42
2017-01-19T11:06:34.113Z,57.47
2017-01-19T11:07:34.100Z,57.19
2017-01-19T11:08:34.091Z,57.38
2017-01-19T11:09:34.077Z,57.85
2017-01-19T11:10:34.067Z,57.76
2017-01-19T11:11:34.054Z,57.28
2017-01-19T11:12:34.044Z,56.9
2017-01-19T11:13:34.033Z,57.66
2017-01-19T11:14:34.020Z,57.28
2017-01-19T11:15:34.009Z,58.33
2017-01-19T11:16:34.030Z,57.95
2017-01-19T11:17:33.986Z,57.95
2017-01-19T11:18:33.977Z,57.76
2017-01-19T11:19:34.351Z,57.66
2017-01-19T11:20:33.955Z,57.57
2017-01-19T11:21:33.943Z,57.66
2017-01-19T11:22:33.932Z,57.19
2017-01-19T11:23:33.919Z,57.38
2017-01-19T11:24:33.910Z,56.99
2017-01-19T11:25:33.899Z,56.62
2017-01-19T11:26:33.887Z,56.81
2017-01-19T11:27:33.874Z,56.52
2017-01-19T11:28:33.865Z,56.52
2017-01-19T11:29:33.853Z,56.15
2017-01-19T11:30:33.843Z,56.05
2017-01-19T11:31:33.832Z,56.24
2017-01-19T11:32:34.205Z,56.52
2017-01-19T11:33:33.812Z,56.52
2017-01-19T11:34:33.800Z,56.24
2017-01-19T11:35:33.786Z,56.9
2017-01-19T11:36:33.778Z,57.09
2017-01-19T11:37:33.766Z,56.62
2017-01-19T11:38:33.753Z,57.28
2017-01-19T11:39:33.744Z,57.47
2017-01-19T11:40:33.732Z,57.38
2017-01-19T11:41:33.723Z,56.9
2017-01-19T11:42:33.711Z,56.62
2017-01-19T11:43:33.699Z,56.43
2017-01-19T11:44:33.690Z,57.19
2017-01-19T11:45:33.675Z,56.24
2017-01-19T11:46:33.666Z,56.43
2017-01-19T11:47:33.658Z,56.43
2017-01-19T11:48:33.643Z,56.62
2017-01-19T11:49:33.632Z,56.52
2017-01-19T11:50:33.621Z,56.99
2017-01-19T11:51:33.610Z,57.28
2017-01-19T11:52:33.600Z,57.28
2017-01-19T11:53:33.588Z,57.38
2017-01-19T11:54:33.580Z,57.66
2017-01-19T11:55:33.566Z,57.28
2017-01-19T11:56:33.555Z,56.62
2017-01-19T11:57:33.568Z,56.71
2017-01-19T11:58:33.535Z,56.62
2017-01-19T11:59:33.523Z,56.81
2017-01-19T12:00:33.510Z,56.62
2017-01-19T12:01:33.502Z,56.99
2017-01-19T12:02:33.489Z,57.19
2017-01-19T12:03:33.477Z,57.38
2017-01-19T12:04:33.469Z,56.99
2017-01-19T12:05:33.456Z,56.9
2017-01-19T12:06:33.446Z,56.99
2017-01-19T12:07:33.435Z,57.28
2017-01-19T12:08:33.421Z,56.81
2017-01-19T12:09:33.413Z,56.62
2017-01-19T12:10:33.400Z,56.9
2017-01-19T12:11:33.387Z,56.62
2017-01-19T12:12:33.381Z,57.19
2017-01-19T12:13:33.367Z,56.62
2017-01-19T12:14:33.358Z,56.52
2017-01-19T12:15:33.729Z,57.09
2017-01-19T12:16:33.335Z,57.09
2017-01-19T12:17:33.322Z,57.28
2017-01-19T12:18:33.312Z,57.66
2017-01-19T12:19:33.299Z,57.28
2017-01-19T12:20:33.290Z,57.38
2017-01-19T12:21:33.278Z,57.19
2017-01-19T12:22:33.266Z,56.81
2017-01-19T12:23:33.256Z,57.28
2017-01-19T12:24:33.246Z,57.38
2017-01-19T12:25:33.233Z,57.54
2017-01-19T12:26:33.573Z,57.92
2017-01-19T12:27:33.209Z,57.73
2017-01-19T12:28:33.198Z,58.2
2017-01-19T12:29:33.574Z,58.39
2017-01-19T12:30:33.178Z,58.48
2017-01-19T12:31:33.165Z,58.11
2017-01-19T12:32:33.153Z,58.11
2017-01-19T12:33:33.140Z,58.58
2017-01-19T12:34:33.130Z,58.48
2017-01-19T12:35:33.117Z,58.96
2017-01-19T12:36:33.107Z,58.39
2017-01-19T12:37:33.094Z,58.01
2017-01-19T12:38:33.083Z,58.29
2017-01-19T12:39:33.070Z,58.29
2017-01-19T12:40:33.059Z,58.39
2017-01-19T12:41:33.047Z,59.53
2017-01-19T12:42:33.037Z,58.67
2017-01-19T12:43:33.027Z,58.29
2017-01-19T12:44:33.016Z,58.86
2017-01-19T12:45:33.001Z,58.39
2017-01-19T12:46:32.987Z,59.34
2017-01-19T12:47:32.977Z,59.05
2017-01-19T12:48:32.964Z,59.25
2017-01-19T12:49:32.952Z,59.34
2017-01-19T12:50:32.942Z,58.58
2017-01-19T12:51:32.927Z,58.86
2017-01-19T12:52:32.916Z,59.15
2017-01-19T12:53:32.905Z,59.15
2017-01-19T12:54:32.893Z,59.05
2017-01-19T12:55:32.880Z,58.86
2017-01-19T12:56:32.868Z,59.34
2017-01-19T12:57:32.857Z,59.44